createdAt,value
2022-10-07T00:00:02.944Z,99149.84
2022-10-07T00:02:05.242Z,99141.34
2022-10-07T00:04:06.553Z,99153.22
2022-10-07T00:06:07.838Z,99150.69
2022-10-07T00:08:09.166Z,99143.00
2022-10-07T00:10:10.646Z,99151.53
2022-10-07T00:12:11.911Z,99154.09
2022-10-07T00:14:13.235Z,99143.88
2022-10-07T00:16:14.605Z,99143.00
2022-10-07T00:18:15.902Z,99136.22
2022-10-07T00:20:17.194Z,99138.78
2022-10-07T00:22:18.473Z,99137.94
2022-10-07T00:24:19.755Z,99142.16
2022-10-07T00:26:21.115Z,99148.13
2022-10-07T00:28:22.428Z,99139.66
2022-10-07T00:30:23.779Z,99138.78
2022-10-07T00:32:25.067Z,99135.34
2022-10-07T00:34:26.414Z,99132.81
2022-10-07T00:36:28.349Z,99122.59
2022-10-07T00:38:29.630Z,99125.16
2022-10-07T00:40:30.958Z,99125.16
2022-10-07T00:42:33.403Z,99114.94
2022-10-07T00:44:35.417Z,99125.16
2022-10-07T00:46:36.700Z,99111.53
2022-10-07T00:48:38.723Z,99117.50
2022-10-07T00:50:40.010Z,99110.69
2022-10-07T00:52:41.341Z,99109.84
2022-10-07T00:54:42.713Z,99109.84
2022-10-07T00:56:43.978Z,99106.47
2022-10-07T00:58:45.262Z,99114.13
2022-10-07T01:00:46.691Z,99103.91
2022-10-07T01:02:48.572Z,99105.59
2022-10-07T01:04:49.898Z,99092.84
2022-10-07T01:06:51.385Z,99091.97
2022-10-07T01:08:52.918Z,99094.50
2022-10-07T01:10:54.195Z,99093.66
2022-10-07T01:12:55.570Z,99089.44
2022-10-07T01:14:56.842Z,99096.22
2022-10-07T01:16:58.182Z,99092.81
2022-10-07T01:18:59.523Z,99083.47
2022-10-07T01:21:00.857Z,99088.56
2022-10-07T01:23:02.168Z,99086.00
2022-10-07T01:25:03.513Z,99082.59
2022-10-07T01:27:04.822Z,99084.31
2022-10-07T01:29:06.095Z,99080.88
2022-10-07T01:31:07.611Z,99080.06
2022-10-07T01:33:08.970Z,99079.19
2022-10-07T01:35:10.248Z,99074.09
2022-10-07T01:37:12.087Z,99068.97
2022-10-07T01:39:13.407Z,99070.69
2022-10-07T01:41:15.169Z,99071.53
2022-10-07T01:43:16.454Z,99068.13
2022-10-07T01:45:21.505Z,99063.00
2022-10-07T01:47:22.790Z,99067.28
2022-10-07T01:49:24.103Z,99052.81
2022-10-07T01:51:25.415Z,99049.44
2022-10-07T01:53:26.737Z,99047.72
2022-10-07T01:55:28.482Z,99052.84
2022-10-07T01:57:29.824Z,99046.88
2022-10-07T01:59:31.336Z,99046.03
2022-10-07T02:01:32.688Z,99043.44
2022-10-07T02:03:34.109Z,99037.47
2022-10-07T02:05:35.611Z,99039.16
2022-10-07T02:07:36.947Z,99032.34
2022-10-07T02:09:38.251Z,99029.81
2022-10-07T02:11:39.535Z,99031.50
2022-10-07T02:13:40.806Z,99032.31
2022-10-07T02:15:42.842Z,99024.66
2022-10-07T02:17:44.320Z,99028.91
2022-10-07T02:19:45.915Z,99025.53
2022-10-07T02:21:47.568Z,99024.69
2022-10-07T02:23:48.861Z,99031.47
2022-10-07T02:25:50.175Z,99018.69
2022-10-07T02:27:51.485Z,99028.06
2022-10-07T02:29:52.765Z,99020.34
2022-10-07T02:31:54.040Z,99014.38
2022-10-07T02:33:57.260Z,99008.47
2022-10-07T02:35:58.615Z,99015.25
2022-10-07T02:37:59.885Z,99002.47
2022-10-07T02:40:01.188Z,99000.78
2022-10-07T02:42:03.656Z,99001.53
2022-10-07T02:44:04.961Z,98999.03
2022-10-07T02:46:08.066Z,98997.41
2022-10-07T02:48:09.613Z,98994.06
2022-10-07T02:50:10.942Z,98994.94
2022-10-07T02:52:12.215Z,98992.41
2022-10-07T02:54:13.552Z,98994.88
2022-10-07T02:56:14.839Z,98993.88
2022-10-07T02:58:16.181Z,98993.13
2022-10-07T03:00:17.444Z,98987.22
2022-10-07T03:02:18.739Z,98986.47
2022-10-07T03:04:21.544Z,98985.69
2022-10-07T03:06:22.868Z,98987.38
2022-10-07T03:08:24.179Z,98982.28
2022-10-07T03:10:26.879Z,98982.28
2022-10-07T03:12:29.024Z,98983.16
2022-10-07T03:14:30.916Z,98976.34
2022-10-07T03:16:32.241Z,98977.19
2022-10-07T03:18:33.914Z,98975.50
2022-10-07T03:20:35.241Z,98981.44
2022-10-07T03:22:36.499Z,98974.66
2022-10-07T03:24:37.839Z,98973.81
2022-10-07T03:26:39.768Z,98961.03
2022-10-07T03:28:41.135Z,98965.28
2022-10-07T03:30:42.556Z,98961.91
2022-10-07T03:32:44.178Z,98967.00
2022-10-07T03:34:45.524Z,98968.72
2022-10-07T03:36:47.530Z,98967.88
2022-10-07T03:38:48.848Z,98969.56
2022-10-07T03:40:50.157Z,98967.84
2022-10-07T03:42:51.432Z,98966.16
2022-10-07T03:44:52.761Z,98961.91
2022-10-07T03:46:54.139Z,98966.19
2022-10-07T03:48:55.530Z,98961.06
2022-10-07T03:50:57.743Z,98959.38
2022-10-07T03:52:59.070Z,98954.25
2022-10-07T03:55:00.362Z,98950.88
2022-10-07T03:57:01.684Z,98949.16
2022-10-07T03:59:03.001Z,98939.81
2022-10-07T04:01:04.274Z,98948.34
2022-10-07T04:03:07.612Z,98948.34
2022-10-07T04:05:08.967Z,98948.34
2022-10-07T04:07:10.233Z,98944.94
2022-10-07T04:09:11.572Z,98943.25
2022-10-07T04:11:12.914Z,98944.94
2022-10-07T04:13:14.399Z,98938.16
2022-10-07T04:15:15.703Z,98939.00
2022-10-07T04:17:17.027Z,98929.63
2022-10-07T04:19:18.312Z,98935.59
2022-10-07T04:21:19.667Z,98825.38
2022-10-07T04:23:20.967Z,98938.97
2022-10-07T04:25:34.605Z,98922.81
2022-10-07T04:27:51.035Z,98938.13
2022-10-07T04:29:53.059Z,98921.09
2022-10-07T04:31:58.202Z,98918.56
2022-10-07T04:33:59.499Z,98921.09
2022-10-07T04:36:00.790Z,98919.38
2022-10-07T04:38:02.587Z,98915.13
2022-10-07T04:40:03.867Z,98919.41
2022-10-07T04:42:05.121Z,98910.03
2022-10-07T04:44:06.398Z,98909.19
2022-10-07T04:46:07.696Z,98907.50
2022-10-07T04:48:08.971Z,98908.34
2022-10-07T04:50:10.273Z,98912.59
2022-10-07T04:52:11.580Z,98896.44
2022-10-07T04:54:13.475Z,98902.41
2022-10-07T04:56:14.818Z,98895.59
2022-10-07T04:58:16.145Z,98902.41
2022-10-07T05:00:17.391Z,98904.09
2022-10-07T05:02:18.800Z,98907.50
2022-10-07T05:04:20.330Z,98899.88
2022-10-07T05:06:21.626Z,98902.41
2022-10-07T05:08:24.378Z,98901.56
2022-10-07T05:10:25.754Z,98899.84
2022-10-07T05:12:27.534Z,98898.16
2022-10-07T05:14:28.810Z,98894.75
2022-10-07T05:16:30.124Z,98890.50
2022-10-07T05:18:31.685Z,98893.91
2022-10-07T05:20:35.251Z,98887.97
2022-10-07T05:22:36.582Z,98887.09
2022-10-07T05:24:37.865Z,98885.41
2022-10-07T05:26:39.123Z,98888.81
2022-10-07T05:28:41.795Z,98895.63
2022-10-07T05:30:43.178Z,98883.72
2022-10-07T05:32:44.442Z,98883.72
2022-10-07T05:34:45.771Z,98880.34
2022-10-07T05:36:47.380Z,98878.63
2022-10-07T05:38:48.709Z,98881.16
2022-10-07T05:40:49.983Z,98882.00
2022-10-07T05:42:51.423Z,98875.22
2022-10-07T05:44:52.751Z,98879.47
2022-10-07T05:46:54.079Z,98878.63
2022-10-07T05:48:55.522Z,98876.91
2022-10-07T05:50:57.172Z,98870.97
2022-10-07T05:52:58.450Z,98871.81
2022-10-07T05:54:59.727Z,98873.50
2022-10-07T05:57:01.034Z,98869.25
2022-10-07T05:59:02.590Z,98871.78
2022-10-07T06:01:07.708Z,98873.50
2022-10-07T06:03:11.531Z,98876.03
2022-10-07T06:05:12.951Z,98873.50
2022-10-07T06:07:19.567Z,98876.06
2022-10-07T06:09:40.812Z,98873.50
2022-10-07T06:12:00.675Z,98871.78
2022-10-07T06:14:01.976Z,98747.22
2022-10-07T06:16:03.275Z,98878.59
2022-10-07T06:18:04.593Z,98876.91
2022-10-07T06:20:05.854Z,98876.03
2022-10-07T06:22:07.152Z,98877.75
2022-10-07T06:24:08.440Z,98876.06
2022-10-07T06:26:10.195Z,98874.38
2022-10-07T06:28:11.535Z,98876.91
2022-10-07T06:30:13.154Z,98870.97
2022-10-07T06:32:14.439Z,98869.25
2022-10-07T06:34:15.767Z,98870.13
2022-10-07T06:36:17.060Z,98860.78
2022-10-07T06:38:18.790Z,98867.59
2022-10-07T06:40:20.379Z,98871.00
2022-10-07T06:42:21.854Z,98866.75
2022-10-07T06:44:23.141Z,98862.50
2022-10-07T06:46:24.538Z,98867.63
2022-10-07T06:48:25.896Z,98866.78
2022-10-07T06:50:27.201Z,98870.22
2022-10-07T06:52:28.479Z,98865.97
2022-10-07T06:54:29.786Z,98865.13
2022-10-07T06:56:31.067Z,98861.72
2022-10-07T06:58:32.376Z,98864.28
2022-10-07T07:00:33.651Z,98863.41
2022-10-07T07:02:34.987Z,98858.34
2022-10-07T07:04:36.341Z,98859.16
2022-10-07T07:06:37.668Z,98865.97
2022-10-07T07:08:41.124Z,98860.00
2022-10-07T07:10:42.929Z,98858.31
2022-10-07T07:12:44.801Z,98859.97
2022-10-07T07:14:46.444Z,98858.28
2022-10-07T07:16:47.833Z,98861.69
2022-10-07T07:18:49.107Z,98863.34
2022-10-07T07:20:50.383Z,98857.44
2022-10-07T07:22:54.835Z,98861.69
2022-10-07T07:24:56.172Z,98852.31
2022-10-07T07:26:57.462Z,98854.88
2022-10-07T07:29:02.342Z,98851.47
2022-10-07T07:31:03.718Z,98850.63
2022-10-07T07:33:05.343Z,98849.75
2022-10-07T07:35:06.634Z,98849.75
2022-10-07T07:37:07.912Z,98842.09
2022-10-07T07:39:09.752Z,98844.66
2022-10-07T07:41:11.226Z,98845.50
2022-10-07T07:43:12.516Z,98847.19
2022-10-07T07:45:13.801Z,98837.84
2022-10-07T07:47:17.021Z,98837.81
2022-10-07T07:49:18.376Z,98837.81
2022-10-07T07:51:20.000Z,98706.44
2022-10-07T07:53:22.846Z,98831.81
2022-10-07T07:55:24.142Z,98842.84
2022-10-07T07:57:25.493Z,98839.44
2022-10-07T07:59:26.878Z,98831.75
2022-10-07T08:01:32.024Z,98838.50
2022-10-07T08:03:33.454Z,98826.53
2022-10-07T08:05:34.789Z,98826.50
2022-10-07T08:07:36.048Z,98829.03
2022-10-07T08:09:37.395Z,98830.69
2022-10-07T08:11:38.669Z,98815.41
2022-10-07T08:13:41.290Z,98813.69
2022-10-07T08:15:42.659Z,98817.06
2022-10-07T08:17:44.215Z,98814.50
2022-10-07T08:19:45.744Z,98816.25
2022-10-07T08:21:47.093Z,98808.59
2022-10-07T08:23:48.367Z,98804.31
2022-10-07T08:25:49.644Z,98812.84
2022-10-07T08:27:51.531Z,98802.63
2022-10-07T08:29:52.825Z,98800.94
2022-10-07T08:31:54.078Z,98790.72
2022-10-07T08:33:55.381Z,98790.72
2022-10-07T08:35:56.658Z,98799.19
2022-10-07T08:37:57.989Z,98783.06
2022-10-07T08:39:59.282Z,98792.38
2022-10-07T08:42:00.558Z,98781.31
2022-10-07T08:44:06.226Z,98780.47
2022-10-07T08:46:09.220Z,98780.47
2022-10-07T08:48:11.435Z,98639.13
2022-10-07T08:50:18.068Z,98649.28
2022-10-07T08:52:20.997Z,98776.22
2022-10-07T08:54:22.547Z,98780.44
2022-10-07T08:56:23.919Z,98777.91
2022-10-07T08:58:25.247Z,98778.75
2022-10-07T09:00:26.524Z,98773.66
2022-10-07T09:02:28.535Z,98766.84
2022-10-07T09:04:30.295Z,98771.09
2022-10-07T09:06:31.607Z,98771.94
2022-10-07T09:08:32.924Z,98764.25
2022-10-07T09:10:34.247Z,98768.53
2022-10-07T09:12:35.518Z,98760.00
2022-10-07T09:14:37.554Z,98753.19
2022-10-07T09:16:38.878Z,98753.16
2022-10-07T09:18:40.183Z,98753.16
2022-10-07T09:20:42.762Z,98748.91
2022-10-07T09:22:44.039Z,98751.44
2022-10-07T09:24:45.312Z,98740.38
2022-10-07T09:26:46.641Z,98738.69
2022-10-07T09:28:48.039Z,98734.41
2022-10-07T09:30:49.483Z,98742.06
2022-10-07T09:32:50.806Z,98739.50
2022-10-07T09:34:52.373Z,98729.25
2022-10-07T09:36:53.908Z,98719.91
2022-10-07T09:38:55.188Z,98726.72
2022-10-07T09:41:15.268Z,98722.47
2022-10-07T09:43:16.773Z,98722.47
2022-10-07T09:45:18.070Z,98714.78
2022-10-07T09:47:19.373Z,98717.34
2022-10-07T09:49:24.259Z,98719.00
2022-10-07T09:51:27.068Z,98719.88
2022-10-07T09:53:33.295Z,98713.06
2022-10-07T09:55:38.093Z,98707.09
2022-10-07T09:57:39.380Z,98707.09
2022-10-07T09:59:40.712Z,98707.91
2022-10-07T10:01:42.065Z,98713.03
2022-10-07T10:03:43.493Z,98702.81
2022-10-07T10:05:44.811Z,98702.78
2022-10-07T10:07:46.280Z,98693.47
2022-10-07T10:09:47.999Z,98684.91
2022-10-07T10:11:49.310Z,98690.88
2022-10-07T10:13:50.636Z,98694.28
2022-10-07T10:15:51.986Z,98684.06
2022-10-07T10:17:54.759Z,98684.06
2022-10-07T10:19:56.085Z,98678.06
2022-10-07T10:21:59.082Z,98680.63
2022-10-07T10:24:00.526Z,98682.31
2022-10-07T10:26:20.671Z,98668.75
2022-10-07T10:28:22.019Z,98667.03
2022-10-07T10:30:23.323Z,98662.78
2022-10-07T10:32:24.603Z,98664.47
2022-10-07T10:34:25.891Z,98655.09
2022-10-07T10:36:27.873Z,98660.19
2022-10-07T10:38:29.666Z,98650.81
2022-10-07T10:40:30.980Z,98653.38
2022-10-07T10:42:32.278Z,98648.28
2022-10-07T10:44:34.057Z,98645.72
2022-10-07T10:46:35.463Z,98633.84
2022-10-07T10:48:36.819Z,98636.38
2022-10-07T10:50:38.223Z,98632.94
2022-10-07T10:52:39.599Z,98627.84
2022-10-07T10:54:40.882Z,98621.88
2022-10-07T10:56:42.163Z,98621.03
2022-10-07T10:58:44.203Z,98616.78
2022-10-07T11:00:45.487Z,98605.72
2022-10-07T11:02:46.978Z,98610.84
2022-10-07T11:04:50.069Z,98612.56
2022-10-07T11:06:51.954Z,98598.13
2022-10-07T11:08:53.263Z,98600.69
2022-10-07T11:10:54.546Z,98601.63
2022-10-07T11:12:57.091Z,98599.00
2022-10-07T11:14:58.904Z,98594.75
2022-10-07T11:17:00.197Z,98589.56
2022-10-07T11:19:01.513Z,98577.78
2022-10-07T11:21:02.827Z,98574.34
2022-10-07T11:23:04.163Z,98571.72
2022-10-07T11:25:05.427Z,98566.59
2022-10-07T11:27:06.699Z,98570.00
2022-10-07T11:29:08.952Z,98565.69
2022-10-07T11:31:11.216Z,98565.69
2022-10-07T11:33:12.991Z,98551.25
2022-10-07T11:35:14.260Z,98551.25
2022-10-07T11:37:16.191Z,98549.53
2022-10-07T11:39:17.508Z,98544.41
2022-10-07T11:41:19.887Z,98546.13
2022-10-07T11:43:21.191Z,98541.88
2022-10-07T11:45:22.442Z,98532.50
2022-10-07T11:47:23.726Z,98542.78
2022-10-07T11:49:25.011Z,98535.06
2022-10-07T11:51:26.301Z,98524.84
2022-10-07T11:53:28.471Z,98525.84
2022-10-07T11:55:29.743Z,98530.09
2022-10-07T11:57:34.079Z,98525.81
2022-10-07T11:59:35.775Z,98519.84
2022-10-07T12:01:37.093Z,98514.75
2022-10-07T12:03:38.434Z,98507.84
2022-10-07T12:05:39.723Z,98506.34
2022-10-07T12:07:41.049Z,98500.31
2022-10-07T12:09:43.030Z,98502.78
2022-10-07T12:11:44.459Z,98496.72
2022-10-07T12:13:45.975Z,98495.81
2022-10-07T12:15:47.414Z,98495.72
2022-10-07T12:17:48.684Z,98493.09
2022-10-07T12:19:49.942Z,98489.69
2022-10-07T12:21:51.221Z,98486.19
2022-10-07T12:23:52.515Z,98487.88
2022-10-07T12:25:53.797Z,98483.56
2022-10-07T12:27:55.284Z,98481.91
2022-10-07T12:30:00.267Z,98473.44
2022-10-07T12:32:01.671Z,98481.97
2022-10-07T12:34:03.188Z,98466.63
2022-10-07T12:36:04.516Z,98475.97
2022-10-07T12:38:05.819Z,98475.31
2022-10-07T12:40:07.096Z,98466.13
2022-10-07T12:42:08.377Z,98462.25
2022-10-07T12:44:10.831Z,98462.19
2022-10-07T12:46:12.376Z,98462.63
2022-10-07T12:48:13.707Z,98453.25
2022-10-07T12:50:14.978Z,98461.47
2022-10-07T12:52:16.277Z,98452.81
2022-10-07T12:54:18.959Z,98454.19
2022-10-07T12:56:21.070Z,98441.16
2022-10-07T12:58:40.846Z,98444.81
2022-10-07T13:00:42.135Z,98441.66
2022-10-07T13:02:43.657Z,98449.84
2022-10-07T13:04:45.472Z,98439.34
2022-10-07T13:06:46.747Z,98435.97
2022-10-07T13:08:48.066Z,98438.25
2022-10-07T13:10:50.155Z,98433.31
2022-10-07T13:12:51.436Z,98426.56
2022-10-07T13:14:52.743Z,98428.13
2022-10-07T13:16:54.161Z,98425.78
2022-10-07T13:18:55.457Z,98423.47
2022-10-07T13:20:56.738Z,98424.31
2022-10-07T13:22:58.008Z,98418.34
2022-10-07T13:24:59.787Z,98410.00
2022-10-07T13:27:01.172Z,98411.56
2022-10-07T13:29:02.456Z,98407.53
2022-10-07T13:31:03.756Z,98405.63
2022-10-07T13:33:05.026Z,98401.97
2022-10-07T13:35:06.362Z,98400.16
2022-10-07T13:37:07.640Z,98394.22
2022-10-07T13:39:08.912Z,98397.69
2022-10-07T13:41:10.266Z,98393.38
2022-10-07T13:43:12.551Z,98375.34
2022-10-07T13:45:13.861Z,98377.94
2022-10-07T13:47:15.157Z,98377.00
2022-10-07T13:49:16.612Z,98367.56
2022-10-07T13:51:17.884Z,98370.63
2022-10-07T13:53:19.158Z,98369.34
2022-10-07T13:55:20.752Z,98363.88
2022-10-07T13:57:22.018Z,98363.03
2022-10-07T13:59:23.333Z,98363.13
2022-10-07T14:01:27.170Z,98365.66
2022-10-07T14:03:28.495Z,98357.22
2022-10-07T14:05:29.817Z,98347.75
2022-10-07T14:07:31.141Z,98347.72
2022-10-07T14:09:32.420Z,98340.94
2022-10-07T14:11:33.699Z,98338.34
2022-10-07T14:13:34.973Z,98337.66
2022-10-07T14:15:36.432Z,98343.72
2022-10-07T14:17:37.695Z,98343.94
2022-10-07T14:19:39.159Z,98348.56
2022-10-07T14:21:40.439Z,98340.19
2022-10-07T14:23:41.699Z,98338.56
2022-10-07T14:25:46.809Z,98332.66
2022-10-07T14:27:48.283Z,98329.66
2022-10-07T14:29:49.738Z,98322.47
2022-10-07T14:32:09.837Z,98320.91
2022-10-07T14:34:29.687Z,98319.50
2022-10-07T14:36:31.194Z,98311.75
2022-10-07T14:38:32.520Z,98309.25
2022-10-07T14:40:33.796Z,98310.88
2022-10-07T14:42:36.268Z,98312.34
2022-10-07T14:44:37.567Z,98301.03
2022-10-07T14:46:39.225Z,98300.44
2022-10-07T14:48:40.517Z,98300.47
2022-10-07T14:50:42.026Z,98297.03
2022-10-07T14:52:45.942Z,98288.94
2022-10-07T14:54:47.648Z,98289.72
2022-10-07T14:56:49.678Z,98293.47
2022-10-07T14:58:51.145Z,98287.44
2022-10-07T15:00:52.983Z,98282.88
2022-10-07T15:02:54.697Z,98281.97
2022-10-07T15:04:56.020Z,98279.91
2022-10-07T15:06:58.055Z,98274.22
2022-10-07T15:09:00.597Z,98276.09
2022-10-07T15:11:02.828Z,98280.50
2022-10-07T15:13:08.699Z,98271.25
2022-10-07T15:15:13.695Z,98271.34
2022-10-07T15:17:15.315Z,98268.06
2022-10-07T15:19:16.595Z,98272.41
2022-10-07T15:21:17.907Z,98266.50
2022-10-07T15:23:19.242Z,98268.31
2022-10-07T15:25:21.504Z,98270.94
2022-10-07T15:27:22.802Z,98274.38
2022-10-07T15:29:24.084Z,98268.47
2022-10-07T15:31:26.136Z,98268.53
2022-10-07T15:33:27.498Z,98262.56
2022-10-07T15:35:30.070Z,98261.66
2022-10-07T15:37:32.350Z,98265.84
2022-10-07T15:39:38.798Z,98264.44
2022-10-07T15:41:40.964Z,98260.06
2022-10-07T15:43:42.235Z,98260.22
2022-10-07T15:45:43.496Z,98258.94
2022-10-07T15:47:44.805Z,98255.75
2022-10-07T15:49:46.111Z,98256.44
2022-10-07T15:51:47.631Z,98259.63
2022-10-07T15:53:48.926Z,98253.75
2022-10-07T15:55:51.151Z,98248.47
2022-10-07T15:57:52.509Z,98102.00
2022-10-07T15:59:54.732Z,98252.41
2022-10-07T16:01:56.173Z,98253.94
2022-10-07T16:03:57.481Z,98244.53
2022-10-07T16:05:59.709Z,98250.47
2022-10-07T16:08:02.833Z,98256.41
2022-10-07T16:10:04.118Z,98251.28
2022-10-07T16:12:05.401Z,98253.84
2022-10-07T16:14:06.684Z,98246.09
2022-10-07T16:16:08.032Z,98250.38
2022-10-07T16:18:09.399Z,98248.66
2022-10-07T16:20:11.538Z,98255.50
2022-10-07T16:22:13.031Z,98253.78
2022-10-07T16:24:14.380Z,98246.38
2022-10-07T16:26:15.694Z,98246.22
2022-10-07T16:28:35.642Z,98252.50
2022-10-07T16:30:43.136Z,98255.34
2022-10-07T16:32:44.625Z,98254.63
2022-10-07T16:34:46.957Z,98253.84
2022-10-07T16:36:48.236Z,98251.34
2022-10-07T16:38:49.939Z,98259.00
2022-10-07T16:40:51.267Z,98247.13
2022-10-07T16:42:52.533Z,98244.53
2022-10-07T16:44:53.803Z,98249.69
2022-10-07T16:46:57.411Z,98243.78
2022-10-07T16:48:58.785Z,98250.59
2022-10-07T16:51:01.323Z,98248.09
2022-10-07T16:53:02.592Z,98243.84
2022-10-07T16:55:03.930Z,98242.19
2022-10-07T16:57:05.279Z,98247.72
2022-10-07T16:59:06.807Z,98241.09
2022-10-07T17:01:09.696Z,98241.78
2022-10-07T17:03:11.051Z,98245.03
2022-10-07T17:05:12.332Z,98237.72
2022-10-07T17:07:13.745Z,98252.53
2022-10-07T17:09:15.226Z,98235.09
2022-10-07T17:11:28.662Z,98233.13
2022-10-07T17:13:30.364Z,98231.59
2022-10-07T17:15:31.668Z,98240.28
2022-10-07T17:17:33.783Z,98244.66
2022-10-07T17:19:36.454Z,98236.22
2022-10-07T17:21:39.675Z,98240.53
2022-10-07T17:23:41.388Z,98227.72
2022-10-07T17:25:46.105Z,98236.84
2022-10-07T17:27:48.540Z,98234.50
2022-10-07T17:29:50.080Z,98235.41
2022-10-07T17:31:51.626Z,98228.63
2022-10-07T17:33:53.027Z,98227.75
2022-10-07T17:35:54.350Z,98225.75
2022-10-07T17:37:56.651Z,98227.28
2022-10-07T17:39:57.938Z,98233.19
2022-10-07T17:41:59.198Z,98240.75
2022-10-07T17:44:00.480Z,98240.69
2022-10-07T17:46:01.763Z,98234.69
2022-10-07T17:48:03.563Z,98243.81
2022-10-07T17:50:04.940Z,98236.75
2022-10-07T17:52:06.268Z,98230.59
2022-10-07T17:54:07.651Z,98228.72
2022-10-07T17:56:09.948Z,98221.84
2022-10-07T17:58:11.218Z,98232.66
2022-10-07T18:00:12.522Z,98227.28
2022-10-07T18:02:13.822Z,98226.25
2022-10-07T18:04:15.292Z,98228.66
2022-10-07T18:06:17.247Z,98226.44
2022-10-07T18:08:18.535Z,98222.34
2022-10-07T18:10:20.264Z,98227.47
2022-10-07T18:12:40.301Z,98222.28
2022-10-07T18:15:16.972Z,98224.84
2022-10-07T18:17:18.241Z,98218.13
2022-10-07T18:19:19.518Z,98214.50
2022-10-07T18:21:22.265Z,98211.88
2022-10-07T18:23:25.559Z,98212.69
2022-10-07T18:25:26.901Z,98208.47
2022-10-07T18:27:28.231Z,98086.13
2022-10-07T18:29:29.560Z,98201.81
2022-10-07T18:31:30.851Z,98206.28
2022-10-07T18:33:32.734Z,98193.16
2022-10-07T18:35:34.006Z,98196.31
2022-10-07T18:37:36.135Z,98195.94
2022-10-07T18:39:37.447Z,98197.44
2022-10-07T18:41:38.757Z,98191.34
2022-10-07T18:43:40.107Z,98186.94
2022-10-07T18:45:41.446Z,98189.44
2022-10-07T18:47:42.922Z,98181.75
2022-10-07T18:49:44.318Z,98188.53
2022-10-07T18:51:50.570Z,98181.63
2022-10-07T18:53:54.163Z,98173.03
2022-10-07T18:55:55.440Z,98175.66
2022-10-07T18:57:56.719Z,98180.63
2022-10-07T18:59:58.021Z,98174.56
2022-10-07T19:01:59.452Z,98176.41
2022-10-07T19:04:03.402Z,98172.38
2022-10-07T19:06:05.000Z,98169.41
2022-10-07T19:08:06.612Z,98165.09
2022-10-07T19:10:07.972Z,98161.44
2022-10-07T19:12:29.211Z,98169.81
2022-10-07T19:14:31.260Z,98169.34
2022-10-07T19:16:35.658Z,98167.09
2022-10-07T19:18:38.365Z,98161.97
2022-10-07T19:20:42.472Z,98167.78
2022-10-07T19:22:45.727Z,98161.81
2022-10-07T19:25:05.878Z,98170.28
2022-10-07T19:27:07.256Z,98170.81
2022-10-07T19:29:14.364Z,98165.78
2022-10-07T19:31:15.922Z,98166.63
2022-10-07T19:33:17.370Z,98168.13
2022-10-07T19:35:18.671Z,98161.97
2022-10-07T19:37:22.655Z,98164.53
2022-10-07T19:39:23.950Z,98153.44
2022-10-07T19:41:25.233Z,98161.13
2022-10-07T19:43:26.621Z,98153.34
2022-10-07T19:45:27.934Z,98154.00
2022-10-07T19:47:30.272Z,98155.78
2022-10-07T19:49:31.578Z,98152.22
2022-10-07T19:51:33.057Z,98157.53
2022-10-07T19:53:34.340Z,98152.50
2022-10-07T19:55:36.614Z,98153.19
2022-10-07T19:57:37.886Z,98151.34
2022-10-07T19:59:39.182Z,98146.53
2022-10-07T20:01:41.741Z,98154.38
2022-10-07T20:03:43.095Z,98155.34
2022-10-07T20:05:44.468Z,98154.56
2022-10-07T20:07:45.962Z,98155.00
2022-10-07T20:09:47.386Z,98156.59
2022-10-07T20:11:48.672Z,98152.25
2022-10-07T20:13:50.129Z,98145.16
2022-10-07T20:15:51.410Z,98144.03
2022-10-07T20:17:54.745Z,98141.50
2022-10-07T20:19:56.431Z,98149.88
2022-10-07T20:22:01.047Z,98145.53
2022-10-07T20:24:02.367Z,98148.94
2022-10-07T20:26:03.648Z,98148.03
2022-10-07T20:28:05.668Z,98143.81
2022-10-07T20:30:17.668Z,98143.63
2022-10-07T20:32:19.463Z,98138.38
2022-10-07T20:34:20.742Z,98145.31
2022-10-07T20:36:22.167Z,98143.56
2022-10-07T20:38:23.574Z,98146.97
2022-10-07T20:40:43.587Z,98134.16
2022-10-07T20:42:47.126Z,98135.03
2022-10-07T20:44:49.282Z,98130.97
2022-10-07T20:46:51.951Z,98133.78
2022-10-07T20:48:54.078Z,98130.16
2022-10-07T20:50:55.578Z,98128.47
2022-10-07T20:52:57.022Z,98127.09
2022-10-07T20:54:58.538Z,98123.00
2022-10-07T20:56:59.854Z,98127.38
2022-10-07T20:59:01.209Z,98120.28
2022-10-07T21:01:02.525Z,98132.09
2022-10-07T21:03:03.947Z,98121.94
2022-10-07T21:05:05.266Z,98114.28
2022-10-07T21:07:06.547Z,98120.28
2022-10-07T21:09:08.083Z,98117.78
2022-10-07T21:11:09.359Z,98119.50
2022-10-07T21:13:10.634Z,98115.34
2022-10-07T21:15:11.930Z,98106.88
2022-10-07T21:17:13.256Z,98118.81
2022-10-07T21:19:14.568Z,98109.50
2022-10-07T21:21:15.883Z,98122.31
2022-10-07T21:23:17.168Z,98117.28
2022-10-07T21:25:18.497Z,98109.66
2022-10-07T21:27:19.778Z,98117.31
2022-10-07T21:29:21.058Z,98109.66
2022-10-07T21:31:22.488Z,98112.22
2022-10-07T21:33:24.282Z,98104.63
2022-10-07T21:35:25.543Z,98110.63
2022-10-07T21:37:26.848Z,98110.69
2022-10-07T21:39:28.131Z,98123.44
2022-10-07T21:41:34.300Z,98101.38
2022-10-07T21:43:35.611Z,98098.03
2022-10-07T21:45:39.023Z,98091.28
2022-10-07T21:47:40.294Z,98098.97
2022-10-07T21:49:41.589Z,98085.38
2022-10-07T21:51:42.881Z,98088.84
2022-10-07T21:53:45.704Z,98095.63
2022-10-07T21:55:47.183Z,98092.28
2022-10-07T21:57:48.456Z,98082.97
2022-10-07T21:59:51.108Z,98081.19
2022-10-07T22:01:52.459Z,98077.84
2022-10-07T22:03:54.010Z,98078.66
2022-10-07T22:05:55.436Z,98075.22
2022-10-07T22:08:15.273Z,98070.06
2022-10-07T22:10:16.548Z,98073.44
2022-10-07T22:12:18.514Z,98072.53
2022-10-07T22:14:19.794Z,98065.75
2022-10-07T22:16:21.066Z,98064.84
2022-10-07T22:18:22.375Z,98060.59
2022-10-07T22:20:23.707Z,98061.50
2022-10-07T22:22:25.118Z,98059.78
2022-10-07T22:24:26.437Z,98056.41
2022-10-07T22:26:27.703Z,98057.28
2022-10-07T22:28:29.084Z,98057.25
2022-10-07T22:30:30.394Z,98058.94
2022-10-07T22:32:31.863Z,98052.13
2022-10-07T22:34:51.654Z,98046.19
2022-10-07T22:36:52.978Z,98039.44
2022-10-07T22:38:57.079Z,98043.72
2022-10-07T22:40:58.351Z,98043.75
2022-10-07T22:42:59.618Z,98039.50
2022-10-07T22:45:00.933Z,98038.63
2022-10-07T22:47:05.256Z,98032.72
2022-10-07T22:49:06.536Z,98033.56
2022-10-07T22:51:08.373Z,98031.84
2022-10-07T22:53:09.688Z,98030.19
2022-10-07T22:55:10.989Z,98031.94
2022-10-07T22:57:12.317Z,98036.19
2022-10-07T22:59:13.652Z,98039.59
2022-10-07T23:01:14.958Z,98038.78
2022-10-07T23:03:16.365Z,98027.75
2022-10-07T23:05:17.764Z,98027.78
2022-10-07T23:07:19.079Z,98021.84
2022-10-07T23:09:21.043Z,98015.94
2022-10-07T23:11:22.307Z,98024.44
2022-10-07T23:13:24.977Z,98021.88
2022-10-07T23:15:26.276Z,98019.34
2022-10-07T23:17:27.622Z,98015.09
2022-10-07T23:19:28.919Z,98014.19
2022-10-07T23:21:30.226Z,98015.03
2022-10-07T23:23:31.509Z,98010.81
2022-10-07T23:25:32.774Z,98006.53
2022-10-07T23:27:34.095Z,98006.47
2022-10-07T23:29:35.430Z,98007.31
2022-10-07T23:31:36.981Z,98002.09
2022-10-07T23:33:38.262Z,97993.50
2022-10-07T23:35:39.590Z,98002.00
2022-10-07T23:37:40.907Z,98001.94
2022-10-07T23:39:42.184Z,97996.78
2022-10-07T23:41:43.501Z,98012.94
2022-10-07T23:43:44.779Z,98001.03
2022-10-07T23:45:46.099Z,97996.72
2022-10-07T23:47:47.420Z,97994.16
2022-10-07T23:49:48.706Z,97982.25
2022-10-07T23:51:50.003Z,97982.25
2022-10-07T23:53:51.276Z,97989.91